Time;durP1;ratioP1;P1;durP2;ratioP2;P2;SDS_P1;SDS_P2;PMS_P1;PMS_P2;Temp;Humidity;BMP_temperature;BMP_pressure;BME280_temperature;BME280_humidity;BME280_pressure;Samples;Min_cycle;Max_cycle;Signal;HPM_P1;HPM_P2
2021/01/15 00:00:44;;;;;;;13.35;7.32;;;-0.90;99.90;;;;;;5100557;28;20141;-52
2021/01/15 00:03:09;;;;;;;11.07;6.35;;;-1.00;99.90;;;;;;5088821;28;20040;-52
2021/01/15 00:05:38;;;;;;;13.25;6.35;;;-1.00;99.90;;;;;;5079340;28;20058;-51
2021/01/15 00:08:03;;;;;;;14.73;6.78;;;-1.10;99.90;;;;;;5087414;28;20031;-52
2021/01/15 00:10:29;;;;;;;11.02;6.22;;;-1.10;99.90;;;;;;5099830;28;20071;-53
2021/01/15 00:12:55;;;;;;;16.17;6.82;;;-1.00;99.90;;;;;;5098121;28;20450;-51
2021/01/15 00:15:20;;;;;;;11.52;5.53;;;-1.00;99.90;;;;;;5088840;28;20507;-53
2021/01/15 00:17:46;;;;;;;14.90;7.85;;;-1.00;99.90;;;;;;5084148;28;20042;-55
2021/01/15 00:20:12;;;;;;;22.23;7.85;;;-1.00;99.90;;;;;;5086091;28;20028;-56
2021/01/15 00:22:42;;;;;;;10.82;5.82;;;-1.10;99.90;;;;;;5086387;28;20349;-57
2021/01/15 00:25:08;;;;;;;13.35;6.35;;;-1.00;99.90;;;;;;5069529;28;20692;-54
2021/01/15 00:27:39;;;;;;;10.35;5.88;;;-1.10;99.90;;;;;;5077385;28;20082;-54
2021/01/15 00:30:08;;;;;;;11.18;5.68;;;-1.20;99.90;;;;;;5086890;28;20040;-56
2021/01/15 00:32:34;;;;;;;11.23;4.57;;;-1.20;99.90;;;;;;5084232;28;20036;-54
2021/01/15 00:34:59;;;;;;;9.70;4.25;;;-1.20;99.90;;;;;;5084187;28;20040;-55
2021/01/15 00:37:25;;;;;;;6.53;3.78;;;-1.20;99.90;;;;;;5083214;28;20048;-56
2021/01/15 00:39:50;;;;;;;7.93;4.35;;;-1.20;99.90;;;;;;5085092;28;20085;-51
2021/01/15 00:42:16;;;;;;;11.50;5.90;;;-1.10;99.90;;;;;;5073139;28;20064;-54
2021/01/15 00:44:45;;;;;;;9.50;4.10;;;-1.10;99.90;;;;;;5066034;28;20070;-52
2021/01/15 00:47:14;;;;;;;11.93;6.28;;;-1.10;99.90;;;;;;5073159;28;20044;-50
2021/01/15 00:49:40;;;;;;;8.35;3.97;;;-1.00;99.90;;;;;;5086775;28;20723;-54
2021/01/15 00:52:06;;;;;;;8.73;4.20;;;-1.00;99.90;;;;;;5086407;28;20051;-53
2021/01/15 00:54:32;;;;;;;8.77;4.55;;;-1.10;99.90;;;;;;5086896;28;20666;-49
2021/01/15 00:56:59;;;;;;;6.57;3.90;;;-1.20;99.90;;;;;;5086486;28;20085;-50
2021/01/15 00:59:24;;;;;;;6.28;3.70;;;-1.10;99.90;;;;;;5086363;28;20165;-54
2021/01/15 01:01:50;;;;;;;8.00;3.75;;;-1.10;99.90;;;;;;5083784;28;20122;-49
2021/01/15 01:04:16;;;;;;;8.20;3.95;;;-1.10;99.90;;;;;;5086190;28;20832;-52
2021/01/15 01:06:41;;;;;;;5.55;3.60;;;-1.20;99.90;;;;;;5082899;28;20085;-55
2021/01/15 01:09:07;;;;;;;9.10;4.65;;;-1.10;99.90;;;;;;5083806;28;20499;-50
2021/01/15 01:11:33;;;;;;;8.68;4.95;;;-1.10;99.90;;;;;;5086297;28;20032;-55
2021/01/15 01:13:59;;;;;;;9.18;4.45;;;-1.10;99.60;;;;;;5086498;28;20044;-53
2021/01/15 01:16:26;;;;;;;9.13;5.28;;;-1.10;99.50;;;;;;5075003;28;20618;-54
2021/01/15 01:18:53;;;;;;;10.02;5.10;;;-1.20;99.60;;;;;;5066033;28;20041;-54
2021/01/15 01:21:18;;;;;;;11.52;5.40;;;-1.20;99.90;;;;;;5065978;28;20036;-53
2021/01/15 01:23:44;;;;;;;9.88;5.18;;;-1.20;99.90;;;;;;5065500;28;20047;-50
2021/01/15 01:26:10;;;;;;;9.18;5.05;;;-1.20;99.90;;;;;;5073772;28;20841;-51
2021/01/15 01:28:36;;;;;;;11.88;5.95;;;-1.10;99.90;;;;;;5085601;28;20040;-56
2021/01/15 01:31:01;;;;;;;11.05;5.65;;;-1.00;99.90;;;;;;5076526;28;20526;-53
2021/01/15 01:33:27;;;;;;;8.20;4.45;;;-1.10;99.90;;;;;;5064757;28;20669;-49
2021/01/15 01:35:52;;;;;;;9.60;5.07;;;-1.10;99.90;;;;;;5065251;28;20470;-57
2021/01/15 01:38:18;;;;;;;9.40;4.47;;;-1.10;99.90;;;;;;5080964;28;20089;-51
2021/01/15 01:40:45;;;;;;;7.45;3.80;;;-1.10;99.90;;;;;;5085546;28;20156;-55
2021/01/15 01:43:10;;;;;;;6.65;4.28;;;-1.10;99.90;;;;;;5083678;28;20044;-53
2021/01/15 01:45:36;;;;;;;7.90;4.57;;;-1.00;99.90;;;;;;5083170;28;20040;-53
2021/01/15 01:48:02;;;;;;;8.98;5.03;;;-0.90;99.90;;;;;;5084654;28;20181;-55
2021/01/15 01:50:30;;;;;;;11.13;5.25;;;-0.90;99.90;;;;;;5085608;28;20040;-56
2021/01/15 01:52:56;;;;;;;9.48;5.63;;;-0.90;99.90;;;;;;5085910;28;20734;-54
2021/01/15 01:55:23;;;;;;;10.27;6.07;;;-0.90;99.90;;;;;;5084580;28;20486;-52
2021/01/15 01:57:48;;;;;;;10.75;6.60;;;-1.00;99.90;;;;;;5084048;28;20055;-55
2021/01/15 02:00:15;;;;;;;14.95;8.00;;;-1.00;99.90;;;;;;5072477;28;20117;-52
2021/01/15 02:02:41;;;;;;;14.55;7.80;;;-1.00;99.90;;;;;;5063772;28;20045;-49
2021/01/15 02:05:07;;;;;;;18.05;7.72;;;-1.00;99.90;;;;;;5064214;28;20407;-50
2021/01/15 02:07:33;;;;;;;18.52;9.35;;;-0.90;99.90;;;;;;5067219;28;20086;-55
2021/01/15 02:10:20;;;;;;;18.90;9.35;;;-1.00;99.90;;;;;;5084042;28;20032;-55
2021/01/15 02:12:58;;;;;;;18.98;9.20;;;-0.90;99.90;;;;;;5083161;28;20072;-56
2021/01/15 02:15:32;;;;;;;22.80;10.43;;;-0.90;99.90;;;;;;5084328;28;20048;-56
2021/01/15 02:18:05;;;;;;;22.25;10.98;;;-0.90;99.90;;;;;;5083380;28;20032;-55
2021/01/15 02:20:30;;;;;;;23.55;10.55;;;-0.90;99.90;;;;;;5085214;28;20040;-56
2021/01/15 02:23:28;;;;;;;25.42;12.35;;;-0.90;99.90;;;;;;5084809;28;20098;-58
2021/01/15 02:26:21;;;;;;;30.13;13.30;;;-0.90;99.90;;;;;;5076816;28;20040;-54
2021/01/15 02:29:22;;;;;;;24.42;11.35;;;-1.10;99.90;;;;;;5068770;28;20032;-50
2021/01/15 02:32:15;;;;;;;23.63;11.77;;;-1.10;99.90;;;;;;5084086;28;20039;-54
2021/01/15 02:35:05;;;;;;;28.08;13.57;;;-1.10;99.90;;;;;;5084066;28;20861;-50
2021/01/15 02:37:49;;;;;;;34.75;13.20;;;-1.00;99.90;;;;;;5082186;28;20732;-56
2021/01/15 02:40:23;;;;;;;28.17;12.85;;;-1.10;99.90;;;;;;5081424;28;20035;-51
2021/01/15 02:42:51;;;;;;;29.42;14.23;;;-1.10;99.90;;;;;;5084181;28;20466;-56
2021/01/15 02:45:18;;;;;;;25.20;12.50;;;-1.00;99.90;;;;;;5083335;28;20817;-54
2021/01/15 02:47:48;;;;;;;22.25;12.52;;;-1.20;99.90;;;;;;5084884;28;20573;-53
2021/01/15 02:50:16;;;;;;;30.13;13.05;;;-1.20;99.90;;;;;;5073391;28;20052;-52
2021/01/15 02:52:42;;;;;;;21.90;11.52;;;-1.10;99.90;;;;;;5064288;28;20068;-57
2021/01/15 02:55:10;;;;;;;32.30;13.50;;;-1.20;99.90;;;;;;5062791;28;20045;-55
2021/01/15 02:57:36;;;;;;;24.33;12.32;;;-1.30;99.90;;;;;;5062710;28;20078;-56
2021/01/15 03:00:04;;;;;;;24.58;12.25;;;-1.20;99.90;;;;;;5083363;28;20070;-55
2021/01/15 03:02:41;;;;;;;21.33;10.82;;;-1.10;99.90;;;;;;5074788;28;20899;-57
2021/01/15 03:05:17;;;;;;;20.55;10.68;;;-1.20;99.90;;;;;;5084442;28;20532;-53
2021/01/15 03:07:45;;;;;;;18.20;10.15;;;-1.10;99.90;;;;;;5080455;28;20555;-57
2021/01/15 03:10:12;;;;;;;19.42;10.30;;;-1.10;99.90;;;;;;5084273;28;20040;-51
2021/01/15 03:12:40;;;;;;;20.90;11.02;;;-1.10;99.90;;;;;;5083828;28;20044;-49
2021/01/15 03:15:08;;;;;;;21.80;11.35;;;-1.20;99.90;;;;;;5083373;28;20127;-55
2021/01/15 03:17:42;;;;;;;20.95;10.98;;;-1.20;99.90;;;;;;5082142;28;20139;-53
2021/01/15 03:20:09;;;;;;;28.42;12.95;;;-1.20;99.90;;;;;;5084185;28;20425;-58
2021/01/15 03:22:36;;;;;;;25.73;11.88;;;-1.30;99.90;;;;;;5083902;28;20838;-53
2021/01/15 03:25:02;;;;;;;22.63;11.60;;;-1.40;99.90;;;;;;5083753;28;20036;-55
2021/01/15 03:27:49;;;;;;;23.67;12.32;;;-1.40;99.90;;;;;;5073418;28;20454;-55
2021/01/15 03:30:21;;;;;;;23.08;13.07;;;-1.50;99.90;;;;;;5063431;28;20731;-55
2021/01/15 03:32:52;;;;;;;23.95;12.82;;;-1.50;99.90;;;;;;5063721;28;20480;-55
2021/01/15 03:35:23;;;;;;;23.55;12.25;;;-1.60;99.90;;;;;;5063397;28;20097;-58
2021/01/15 03:37:55;;;;;;;26.10;11.23;;;-1.60;99.90;;;;;;5068343;28;20028;-58
2021/01/15 03:40:21;;;;;;;20.38;11.60;;;-1.70;99.90;;;;;;5083304;28;20036;-56
2021/01/15 03:42:47;;;;;;;23.60;11.48;;;-1.80;99.90;;;;;;5082981;28;20051;-55
2021/01/15 03:45:14;;;;;;;24.35;11.68;;;-1.80;99.90;;;;;;5079921;28;20123;-52
2021/01/15 03:47:39;;;;;;;26.77;12.45;;;-1.80;99.90;;;;;;5082951;28;20085;-54
2021/01/15 03:50:06;;;;;;;23.63;11.38;;;-1.80;99.90;;;;;;5085311;28;20043;-52
2021/01/15 03:52:31;;;;;;;23.00;11.20;;;-1.90;99.90;;;;;;5087201;28;20068;-55
2021/01/15 03:54:57;;;;;;;25.40;12.25;;;-1.80;99.90;;;;;;5088250;28;20036;-56
2021/01/15 03:57:22;;;;;;;19.27;9.82;;;-1.90;99.90;;;;;;5085924;28;20040;-56
2021/01/15 03:59:48;;;;;;;23.92;11.15;;;-1.90;99.90;;;;;;5087996;28;20039;-53
2021/01/15 04:02:13;;;;;;;26.02;13.45;;;-1.90;99.90;;;;;;5075704;28;20033;-56
2021/01/15 04:04:39;;;;;;;27.23;13.30;;;-2.00;99.90;;;;;;5067203;28;20044;-53
2021/01/15 04:07:05;;;;;;;25.92;12.48;;;-2.20;99.90;;;;;;5066555;28;20047;-53
2021/01/15 04:09:30;;;;;;;28.33;13.45;;;-2.20;99.90;;;;;;5086570;28;20518;-53
2021/01/15 04:11:56;;;;;;;31.23;13.95;;;-2.30;99.90;;;;;;5085820;28;20040;-53
2021/01/15 04:14:21;;;;;;;22.25;12.63;;;-2.40;99.90;;;;;;5087464;28;20040;-54
2021/01/15 04:16:51;;;;;;;28.13;13.30;;;-2.40;99.90;;;;;;5085808;28;20044;-50
2021/01/15 04:19:17;;;;;;;27.92;12.45;;;-2.40;99.90;;;;;;5087504;28;20444;-53
2021/01/15 04:21:42;;;;;;;23.38;12.27;;;-2.40;99.90;;;;;;5085497;28;20044;-55
2021/01/15 04:24:08;;;;;;;22.58;11.25;;;-2.40;99.90;;;;;;5086789;28;20079;-55
2021/01/15 04:26:33;;;;;;;23.80;11.82;;;-2.30;99.90;;;;;;5086846;28;20040;-51
2021/01/15 04:28:59;;;;;;;29.15;13.60;;;-2.40;99.90;;;;;;5087950;28;20385;-56
2021/01/15 04:31:25;;;;;;;26.23;12.57;;;-2.30;99.90;;;;;;5080724;28;20037;-57
2021/01/15 04:33:50;;;;;;;26.75;13.73;;;-2.30;99.90;;;;;;5066948;28;20407;-53
2021/01/15 04:36:16;;;;;;;26.15;12.38;;;-2.30;99.90;;;;;;5066989;28;20434;-57
2021/01/15 04:38:43;;;;;;;22.90;12.50;;;-2.40;99.90;;;;;;5079959;28;20028;-56
2021/01/15 04:41:09;;;;;;;23.92;11.57;;;-2.40;99.90;;;;;;5087365;28;20039;-54
2021/01/15 04:43:38;;;;;;;22.05;11.48;;;-2.30;99.90;;;;;;5084919;28;20044;-53
2021/01/15 04:46:04;;;;;;;21.88;10.90;;;-2.40;99.90;;;;;;5083911;28;20040;-58
2021/01/15 04:48:34;;;;;;;23.48;11.80;;;-2.30;99.90;;;;;;5087387;28;20035;-57
2021/01/15 04:51:01;;;;;;;20.90;10.73;;;-2.40;99.90;;;;;;5087137;28;20046;-58
2021/01/15 04:53:29;;;;;;;21.95;10.02;;;-2.40;99.90;;;;;;5087083;28;20043;-53
2021/01/15 04:55:58;;;;;;;19.05;10.18;;;-2.30;99.90;;;;;;5086868;28;20438;-58
2021/01/15 04:58:33;;;;;;;22.85;10.43;;;-2.30;99.90;;;;;;5085761;28;20178;-53
2021/01/15 05:00:59;;;;;;;22.20;11.10;;;-2.30;99.90;;;;;;5084281;28;20054;-56
2021/01/15 05:03:26;;;;;;;22.08;10.82;;;-2.20;99.90;;;;;;5083726;28;20047;-54
2021/01/15 05:06:07;;;;;;;24.13;12.23;;;-2.10;99.90;;;;;;5083169;28;20043;-54
2021/01/15 05:08:36;;;;;;;21.05;11.32;;;-2.00;99.90;;;;;;5083592;28;20032;-53
2021/01/15 05:11:03;;;;;;;25.63;10.63;;;-2.00;99.90;;;;;;5086661;28;20075;-56
2021/01/15 05:13:36;;;;;;;20.15;10.95;;;-2.00;99.90;;;;;;5086386;28;20055;-52
2021/01/15 05:16:03;;;;;;;21.35;10.27;;;-1.90;99.90;;;;;;5070151;28;20045;-56
2021/01/15 05:18:31;;;;;;;19.08;10.25;;;-1.90;99.90;;;;;;5066084;28;20385;-51
2021/01/15 05:20:57;;;;;;;24.63;11.65;;;-1.90;99.90;;;;;;5065894;28;20454;-56
2021/01/15 05:23:24;;;;;;;19.50;9.63;;;-1.90;99.90;;;;;;5064462;28;20048;-48
2021/01/15 05:25:49;;;;;;;21.33;11.75;;;-1.80;99.90;;;;;;5072689;28;20101;-51
2021/01/15 05:28:16;;;;;;;22.95;11.35;;;-1.80;99.90;;;;;;5083328;28;20052;-50
2021/01/15 05:30:42;;;;;;;24.98;12.65;;;-1.80;99.90;;;;;;5070733;28;20090;-53
2021/01/15 05:33:15;;;;;;;25.63;12.23;;;-1.80;99.90;;;;;;5066034;28;20040;-50
2021/01/15 05:35:46;;;;;;;25.85;12.88;;;-1.80;99.90;;;;;;5066016;28;20102;-50
2021/01/15 05:38:14;;;;;;;23.20;12.82;;;-1.70;99.90;;;;;;5077449;28;20092;-51
2021/01/15 05:40:50;;;;;;;26.67;13.38;;;-1.70;99.90;;;;;;5085278;28;20036;-53
2021/01/15 05:43:20;;;;;;;26.17;13.77;;;-1.70;99.90;;;;;;5086177;28;20047;-47
2021/01/15 05:46:04;;;;;;;25.95;13.32;;;-1.70;99.90;;;;;;5084144;28;20040;-56
2021/01/15 05:48:30;;;;;;;28.20;13.50;;;-1.70;99.90;;;;;;5085239;28;20707;-56
2021/01/15 05:50:56;;;;;;;37.97;16.15;;;-1.60;99.90;;;;;;5073445;28;20033;-54
2021/01/15 05:53:22;;;;;;;27.38;13.75;;;-1.60;99.90;;;;;;5065073;28;20080;-56
2021/01/15 05:55:58;;;;;;;26.95;13.05;;;-1.60;99.90;;;;;;5064958;28;20072;-57
2021/01/15 05:58:24;;;;;;;27.20;13.35;;;-1.60;99.90;;;;;;5073137;28;20055;-55
2021/01/15 06:00:53;;;;;;;25.27;12.32;;;-1.50;99.90;;;;;;5080193;28;20667;-52
2021/01/15 06:03:22;;;;;;;27.55;13.55;;;-1.50;99.90;;;;;;5065607;28;20147;-56
2021/01/15 06:05:52;;;;;;;28.35;14.68;;;-1.50;99.90;;;;;;5064338;28;20451;-53
2021/01/15 06:08:18;;;;;;;26.17;13.98;;;-1.50;99.90;;;;;;5073811;28;20063;-56
2021/01/15 06:10:48;;;;;;;30.27;14.35;;;-1.50;99.90;;;;;;5085045;28;20477;-59
2021/01/15 06:13:34;;;;;;;30.38;14.50;;;-1.50;99.90;;;;;;5084899;28;20549;-57
2021/01/15 06:16:00;;;;;;;30.25;14.25;;;-1.40;99.90;;;;;;5083781;28;20051;-54
2021/01/15 06:18:26;;;;;;;28.42;14.45;;;-1.40;99.90;;;;;;5083954;28;20044;-51
2021/01/15 06:21:07;;;;;;;30.50;15.07;;;-1.40;99.90;;;;;;5084605;28;20040;-54
2021/01/15 06:23:39;;;;;;;32.58;14.73;;;-1.40;99.90;;;;;;5084878;28;20047;-52
2021/01/15 06:26:08;;;;;;;30.75;16.08;;;-1.40;99.90;;;;;;5077841;28;20064;-55
2021/01/15 06:28:35;;;;;;;28.13;14.02;;;-1.40;99.90;;;;;;5084360;28;20471;-56
2021/01/15 06:31:04;;;;;;;29.38;13.80;;;-1.40;99.90;;;;;;5082732;28;20566;-54
2021/01/15 06:33:30;;;;;;;28.55;14.07;;;-1.40;99.90;;;;;;5064344;22;20063;-74
2021/01/15 06:35:56;;;;;;;34.03;15.55;;;-1.30;99.90;;;;;;5030711;28;20496;-73
2021/01/15 06:38:29;;;;;;;36.10;15.18;;;-1.30;99.90;;;;;;5031120;28;20560;-73
2021/01/15 06:40:58;;;;;;;31.63;14.45;;;-1.40;99.90;;;;;;5031495;28;20037;-75
2021/01/15 06:43:30;;;;;;;30.33;14.70;;;-1.50;99.90;;;;;;5030945;28;20048;-72
2021/01/15 06:46:01;;;;;;;39.97;18.48;;;-1.40;99.90;;;;;;5030154;28;20055;-75
2021/01/15 06:48:35;;;;;;;44.83;18.90;;;-1.50;99.90;;;;;;5031095;28;20045;-73
2021/01/15 06:51:02;;;;;;;40.03;17.20;;;-1.60;99.90;;;;;;5031042;28;20064;-74
2021/01/15 06:53:38;;;;;;;45.53;19.60;;;-1.50;99.90;;;;;;5030741;28;20082;-75
2021/01/15 06:56:05;;;;;;;69.53;21.77;;;-1.40;99.90;;;;;;5048265;28;20056;-75
2021/01/15 06:58:39;;;;;;;64.07;24.92;;;-1.60;99.90;;;;;;5031088;28;20037;-75
2021/01/15 07:01:22;;;;;;;56.50;23.00;;;-1.70;99.90;;;;;;5009800;28;20120;-73
2021/01/15 07:03:52;;;;;;;70.00;23.08;;;-1.90;99.90;;;;;;5018860;28;20037;-74
2021/01/15 07:06:26;;;;;;;208.93;29.35;;;-1.80;99.90;;;;;;5030110;28;20049;-73
2021/01/15 07:08:54;;;;;;;160.30;26.90;;;-1.90;99.90;;;;;;5025868;28;20048;-73
2021/01/15 07:11:22;;;;;;;167.45;29.05;;;-2.00;99.90;;;;;;5031210;28;20045;-68
2021/01/15 07:13:53;;;;;;;103.18;25.20;;;-2.00;99.90;;;;;;5030312;28;20048;-75
2021/01/15 07:16:39;;;;;;;172.20;29.25;;;-2.00;99.90;;;;;;5029722;28;20041;-74
2021/01/15 07:19:05;;;;;;;169.27;30.75;;;-2.00;99.90;;;;;;5030520;28;20032;-73
2021/01/15 07:21:38;;;;;;;171.27;30.75;;;-2.00;99.90;;;;;;5030224;28;20478;-72
2021/01/15 07:24:08;;;;;;;148.65;29.65;;;-2.00;99.90;;;;;;5030874;28;20045;-74
2021/01/15 07:26:41;;;;;;;229.85;31.25;;;-1.90;99.90;;;;;;5051950;28;20047;-72
2021/01/15 07:29:09;;;;;;;404.02;38.70;;;-1.90;99.90;;;;;;5034208;28;20049;-74
2021/01/15 07:31:40;;;;;;;278.63;33.53;;;-1.90;99.90;;;;;;5033351;28;20120;-75
2021/01/15 07:34:12;;;;;;;432.20;39.88;;;-2.00;99.90;;;;;;5034512;28;20044;-73
2021/01/15 07:36:39;;;;;;;162.77;28.50;;;-1.90;99.90;;;;;;5033934;28;20037;-76
2021/01/15 07:39:14;;;;;;;239.05;32.30;;;-1.90;99.90;;;;;;5033271;28;20056;-75
2021/01/15 07:41:52;;;;;;;264.45;28.98;;;-1.80;99.90;;;;;;5033855;28;20160;-74
2021/01/15 07:44:21;;;;;;;195.07;27.95;;;-1.90;99.90;;;;;;5033698;28;20052;-72
2021/01/15 07:47:01;;;;;;;212.38;30.85;;;-1.90;99.90;;;;;;5032407;28;20044;-72
2021/01/15 07:49:54;;;;;;;361.70;36.58;;;-1.80;99.90;;;;;;5033478;28;20069;-74
2021/01/15 07:52:19;;;;;;;290.13;36.75;;;-1.90;99.90;;;;;;5032534;28;20044;-72
2021/01/15 07:54:49;;;;;;;227.23;32.20;;;-1.90;99.90;;;;;;5033315;28;20390;-73
2021/01/15 07:57:19;;;;;;;157.93;28.70;;;-1.80;99.90;;;;;;5033417;28;20041;-74
2021/01/15 07:59:45;;;;;;;235.68;30.45;;;-1.80;99.90;;;;;;5033975;28;20049;-72
2021/01/15 08:02:15;;;;;;;359.80;37.40;;;-1.70;99.90;;;;;;5034071;28;20037;-73
2021/01/15 08:04:41;;;;;;;290.25;35.10;;;-1.80;99.90;;;;;;5034746;28;20055;-72
2021/01/15 08:07:33;;;;;;;170.07;29.63;;;-1.70;99.90;;;;;;5033439;28;20056;-72
2021/01/15 08:10:00;;;;;;;149.82;27.90;;;-1.80;99.90;;;;;;5047254;28;20037;-72
2021/01/15 08:12:35;;;;;;;53.45;21.17;;;-1.80;99.90;;;;;;5030953;28;20036;-73
2021/01/15 08:15:00;;;;;;;49.40;20.38;;;-1.60;99.90;;;;;;5014371;28;20053;-74
2021/01/15 08:17:26;;;;;;;53.55;20.92;;;-1.50;99.90;;;;;;5030781;28;20094;-70
2021/01/15 08:19:52;;;;;;;84.25;25.38;;;-1.40;99.90;;;;;;5033503;28;20075;-74
2021/01/15 08:22:19;;;;;;;71.05;21.13;;;-1.50;99.90;;;;;;5033558;28;20071;-73
2021/01/15 08:24:47;;;;;;;74.45;22.73;;;-1.50;99.90;;;;;;5033756;28;20059;-76
2021/01/15 08:27:18;;;;;;;81.10;24.55;;;-1.40;99.90;;;;;;5033006;28;20049;-74
2021/01/15 08:29:44;;;;;;;148.48;29.33;;;-1.50;99.90;;;;;;5033139;28;20041;-74
2021/01/15 08:32:11;;;;;;;77.35;24.13;;;-1.50;99.90;;;;;;5032526;28;20045;-72
2021/01/15 08:34:38;;;;;;;54.70;22.25;;;-1.40;99.90;;;;;;5052241;28;20045;-73
2021/01/15 08:37:09;;;;;;;45.90;19.88;;;-1.40;99.90;;;;;;5032168;28;20482;-73
2021/01/15 08:40:01;;;;;;;53.70;21.45;;;-1.30;99.90;;;;;;5032519;28;20072;-74
2021/01/15 08:42:31;;;;;;;61.55;22.75;;;-1.30;99.90;;;;;;5010941;28;20049;-74
2021/01/15 08:44:58;;;;;;;49.40;21.00;;;-1.40;99.90;;;;;;5012674;28;20053;-75
2021/01/15 08:47:24;;;;;;;101.63;28.48;;;-1.50;99.90;;;;;;5016541;28;20064;-77
2021/01/15 08:49:55;;;;;;;71.05;23.25;;;-1.40;99.90;;;;;;5032710;28;20049;-75
2021/01/15 08:52:32;;;;;;;76.05;23.55;;;-1.40;99.90;;;;;;5032352;28;20063;-76
2021/01/15 08:55:02;;;;;;;57.30;20.63;;;-1.20;99.90;;;;;;5032236;28;20059;-78
2021/01/15 08:57:30;;;;;;;141.57;29.30;;;-1.20;99.90;;;;;;5032040;28;20037;-74
2021/01/15 09:00:06;;;;;;;67.47;24.42;;;-1.20;99.90;;;;;;5031622;28;20167;-75
2021/01/15 09:02:37;;;;;;;76.75;23.98;;;-1.20;99.90;;;;;;5030759;28;20122;-76
2021/01/15 09:05:03;;;;;;;54.53;21.92;;;-1.20;99.90;;;;;;5031323;28;20048;-75
2021/01/15 09:07:29;;;;;;;52.80;21.90;;;-1.10;99.90;;;;;;5031484;28;20063;-76
2021/01/15 09:09:56;;;;;;;66.22;25.20;;;-1.10;99.90;;;;;;5031887;28;20036;-73
2021/01/15 09:12:26;;;;;;;56.53;22.02;;;-1.00;99.90;;;;;;5031725;28;20612;-78
2021/01/15 09:14:52;;;;;;;50.80;21.70;;;-1.00;99.90;;;;;;5032011;28;20041;-75
2021/01/15 09:17:25;;;;;;;57.30;23.55;;;-1.00;99.90;;;;;;5030729;28;20036;-73
2021/01/15 09:19:51;;;;;;;48.58;21.48;;;-1.00;99.90;;;;;;5049616;28;20111;-73
2021/01/15 09:22:22;;;;;;;44.65;19.75;;;-0.90;99.90;;;;;;5028384;28;20124;-74
2021/01/15 09:24:48;;;;;;;56.72;22.15;;;-0.90;99.90;;;;;;5030506;28;20473;-74
2021/01/15 09:27:13;;;;;;;61.70;22.60;;;-0.80;99.90;;;;;;5030970;28;20048;-73
2021/01/15 09:29:40;;;;;;;56.42;23.10;;;-0.90;99.90;;;;;;5031637;28;20037;-74
2021/01/15 09:32:06;;;;;;;44.35;20.33;;;-0.80;99.90;;;;;;5030851;28;20116;-74
2021/01/15 09:34:31;;;;;;;45.53;20.38;;;-0.80;99.90;;;;;;5031988;28;20167;-73
2021/01/15 09:36:58;;;;;;;47.95;20.08;;;-0.80;99.90;;;;;;5031506;28;20060;-75
2021/01/15 09:39:26;;;;;;;44.47;20.38;;;-0.80;99.90;;;;;;5021803;28;20052;-73
2021/01/15 09:41:54;;;;;;;49.10;20.73;;;-0.80;99.90;;;;;;5033108;28;20107;-75
2021/01/15 09:44:21;;;;;;;40.22;18.48;;;-0.80;99.90;;;;;;5032510;28;20039;-72
2021/01/15 09:46:49;;;;;;;41.28;19.08;;;-0.90;99.90;;;;;;5029261;28;20099;-74
2021/01/15 09:49:15;;;;;;;39.42;17.38;;;-0.90;99.90;;;;;;5031121;28;20083;-74
2021/01/15 09:51:41;;;;;;;37.75;17.23;;;-0.80;99.90;;;;;;5031531;28;20086;-73
2021/01/15 09:54:07;;;;;;;35.63;15.85;;;-0.80;99.90;;;;;;5030649;28;20159;-73
2021/01/15 09:56:47;;;;;;;35.75;16.70;;;-0.80;99.90;;;;;;5020052;28;20048;-75
2021/01/15 09:59:15;;;;;;;39.88;17.73;;;-0.80;99.90;;;;;;5013000;28;20049;-74
2021/01/15 10:01:42;;;;;;;33.17;15.45;;;-1.00;99.90;;;;;;5012590;28;20069;-75
2021/01/15 10:04:08;;;;;;;27.48;14.32;;;-0.90;99.90;;;;;;5031154;28;20059;-73
2021/01/15 10:06:39;;;;;;;28.20;13.88;;;-0.80;99.90;;;;;;5028382;28;20049;-75
2021/01/15 10:09:07;;;;;;;32.47;15.07;;;-0.80;99.90;;;;;;5029211;28;20060;-74
2021/01/15 10:11:38;;;;;;;29.25;13.93;;;-0.70;99.90;;;;;;5029352;28;20043;-73
2021/01/15 10:14:13;;;;;;;27.20;13.43;;;-0.60;99.90;;;;;;5028404;28;20080;-74
2021/01/15 10:16:49;;;;;;;33.00;13.32;;;-0.60;99.90;;;;;;5021723;28;20123;-73
2021/01/15 10:19:15;;;;;;;24.00;11.63;;;-0.50;99.90;;;;;;5030390;28;20037;-74
2021/01/15 10:21:41;;;;;;;25.73;12.63;;;-0.50;99.90;;;;;;5030701;28;20138;-73
2021/01/15 10:24:08;;;;;;;25.80;13.52;;;-0.40;99.90;;;;;;5027501;28;20714;-75
2021/01/15 10:26:36;;;;;;;25.10;12.82;;;-0.50;99.90;;;;;;5029230;28;20056;-75
2021/01/15 10:29:06;;;;;;;35.80;16.50;;;-0.50;99.90;;;;;;5048155;28;20037;-73
2021/01/15 10:31:52;;;;;;;27.77;14.93;;;-0.50;99.90;;;;;;5028872;28;20045;-75
2021/01/15 10:34:17;;;;;;;22.65;11.85;;;-0.50;99.90;;;;;;5027473;28;20033;-73
2021/01/15 10:36:45;;;;;;;25.17;13.27;;;-0.40;99.90;;;;;;5047980;28;20048;-74
2021/01/15 10:39:11;;;;;;;30.17;14.45;;;-0.40;99.90;;;;;;5029844;28;20044;-75
2021/01/15 10:41:39;;;;;;;26.92;13.50;;;-0.30;99.90;;;;;;5042999;28;20067;-73
2021/01/15 10:44:07;;;;;;;27.25;14.02;;;-0.40;99.90;;;;;;5028587;28;20453;-75
2021/01/15 10:46:39;;;;;;;26.88;13.00;;;-0.40;99.90;;;;;;5017629;28;20045;-76
2021/01/15 10:49:12;;;;;;;26.55;12.88;;;-0.40;99.90;;;;;;5010134;28;20047;-74
2021/01/15 10:51:46;;;;;;;24.15;12.00;;;-0.40;99.90;;;;;;5020986;28;20092;-74
2021/01/15 10:54:12;;;;;;;25.90;13.60;;;-0.40;99.90;;;;;;5010839;28;20033;-75
2021/01/15 10:56:41;;;;;;;23.35;11.85;;;-0.30;99.90;;;;;;5001486;28;20034;-74
2021/01/15 10:59:08;;;;;;;25.98;12.10;;;-0.30;99.90;;;;;;5009246;28;20045;-74
2021/01/15 11:01:44;;;;;;;25.23;12.10;;;-0.30;99.90;;;;;;5019558;28;20039;-75
2021/01/15 11:04:12;;;;;;;26.23;12.82;;;-0.30;99.90;;;;;;5027335;28;20107;-74
2021/01/15 11:06:40;;;;;;;28.13;14.05;;;-0.20;99.90;;;;;;5021255;28;20045;-76
2021/01/15 11:09:08;;;;;;;27.50;12.88;;;-0.20;99.90;;;;;;5047062;28;20040;-73
2021/01/15 11:11:34;;;;;;;23.98;12.40;;;-0.20;99.90;;;;;;5029833;28;20049;-71
2021/01/15 11:14:00;;;;;;;30.63;15.90;;;-0.20;99.90;;;;;;5029310;28;20044;-73
2021/01/15 11:16:26;;;;;;;24.80;12.68;;;-0.10;99.90;;;;;;5028484;28;20151;-73
2021/01/15 11:18:53;;;;;;;26.88;13.85;;;-0.10;99.90;;;;;;5029422;28;20043;-75
2021/01/15 11:21:26;;;;;;;23.50;12.15;;;-0.20;99.90;;;;;;5047898;28;20060;-73
2021/01/15 11:23:52;;;;;;;29.58;14.52;;;-0.30;99.90;;;;;;5028717;28;20120;-75
2021/01/15 11:26:30;;;;;;;26.75;12.75;;;-0.30;99.90;;;;;;5030222;28;20048;-71
2021/01/15 11:29:00;;;;;;;30.17;13.60;;;-0.40;99.90;;;;;;5031074;28;20044;-74
2021/01/15 11:31:26;;;;;;;24.67;12.73;;;-0.50;99.90;;;;;;5029677;28;20045;-73
2021/01/15 11:33:53;;;;;;;24.58;12.18;;;-0.50;99.90;;;;;;5047297;28;20048;-73
2021/01/15 11:36:20;;;;;;;31.13;13.93;;;-0.40;99.90;;;;;;5029487;28;20040;-74
2021/01/15 11:38:46;;;;;;;27.35;13.65;;;-0.40;99.90;;;;;;5027822;28;20033;-75
2021/01/15 11:41:14;;;;;;;28.95;14.05;;;-0.30;99.90;;;;;;5028607;28;20044;-73
2021/01/15 11:43:41;;;;;;;26.38;13.25;;;-0.30;99.90;;;;;;5028906;28;20037;-73
2021/01/15 11:46:07;;;;;;;27.08;13.57;;;-0.20;99.90;;;;;;5028332;28;20037;-74
2021/01/15 11:48:34;;;;;;;27.50;13.73;;;-0.20;99.90;;;;;;5029120;28;20040;-76
2021/01/15 11:51:00;;;;;;;31.90;15.52;;;-0.30;99.90;;;;;;5026520;28;20040;-73
2021/01/15 11:53:31;;;;;;;29.45;14.35;;;-0.20;99.90;;;;;;5036594;28;20049;-74
2021/01/15 11:55:57;;;;;;;28.25;13.77;;;-0.20;99.90;;;;;;5008332;28;20045;-75
2021/01/15 11:58:24;;;;;;;29.48;13.45;;;-0.10;99.90;;;;;;5009314;28;20056;-74
2021/01/15 12:00:50;;;;;;;27.63;14.40;;;-0.10;99.90;;;;;;5008730;28;20037;-73
2021/01/15 12:03:16;;;;;;;39.38;20.23;;;-0.20;99.90;;;;;;5037439;28;20076;-72
2021/01/15 12:05:42;;;;;;;30.23;16.08;;;-0.20;99.90;;;;;;5028741;28;20059;-74
2021/01/15 12:08:08;;;;;;;35.10;17.13;;;-0.40;99.90;;;;;;5028004;28;20041;-73
2021/01/15 12:10:34;;;;;;;28.33;14.40;;;-0.50;99.90;;;;;;5030010;28;20045;-77
2021/01/15 12:13:01;;;;;;;24.60;12.27;;;-0.50;99.90;;;;;;5032067;28;20032;-74
2021/01/15 12:15:27;;;;;;;28.08;14.43;;;-0.40;99.90;;;;;;5032353;28;20122;-77
2021/01/15 12:17:53;;;;;;;24.02;12.75;;;-0.40;99.90;;;;;;5037888;28;20069;-76
2021/01/15 12:20:19;;;;;;;29.17;14.15;;;-0.40;99.90;;;;;;5027446;28;20036;-76
2021/01/15 12:22:48;;;;;;;28.90;14.40;;;-0.50;99.90;;;;;;5029846;28;20037;-76
2021/01/15 12:25:14;;;;;;;24.45;11.70;;;-0.40;99.90;;;;;;5033572;28;20060;-75
2021/01/15 12:27:45;;;;;;;24.13;11.77;;;-0.50;99.90;;;;;;5033605;28;20041;-75
2021/01/15 12:30:13;;;;;;;22.92;11.88;;;-0.40;99.90;;;;;;5030909;28;20119;-75
2021/01/15 12:32:39;;;;;;;22.38;11.50;;;-0.40;99.90;;;;;;5011723;28;20033;-74
2021/01/15 12:35:06;;;;;;;22.65;11.70;;;-0.40;99.90;;;;;;5021985;28;20038;-75
2021/01/15 12:37:32;;;;;;;22.02;10.95;;;-0.50;99.90;;;;;;5021631;28;20037;-76